Hauptseite
METAR-TAF:

METAR-TAF

Flughäfen :

Viña del Mar, Chile

Breite: 32-56-59S, Länge: 71-28-43W, Höhe: 141 m

Beobachtung

Neuester Wetterbericht von vor 59 Minuten, um 12:00 UTC
Wind 9 kt aus Nord/Nordwest
Temperatur 16°C
Luftfeuchtigkeit 94%
Luftdruck 1016 hPa
Sichtweite: 8000 m
Durchbrochene Bewölkung in der Höhe von 800 ft
Durchbrochene Bewölkung in der Höhe von 2000 ft

METAR: SCVM 241200Z 33009KT 8000 BKN008 BKN020 16/15 Q1016

Zeit: 09:59 (12:59 UTC)


TAF: fehlend

Wetterbeobachtungen und Prognosen von mehr als 4000 Flughäfen (METAR und TAF Bericht).

Die verfügbaren Stationen werden durch gelbe und rote Markierungen auf der Karte dargestellt.

Führen Sie die Maus auf sie, um den Namen der Station zu sehen.

Darauf klicken, um die Beobachtung von Wetterbeobachtungen und Prognosen zu sehen.

Um die Karte zu ändern : klicken Sie auf den grünen Tasten mit einem schwarzen Kreuz Zum Vergrößern, auf den grünen Button mit einem Gedankenstrich zu verkleinern, oder auf die grünen Pfeile für benachbarte Karten.


METAR-TAF: